西安 の空港の天気 - METARとTAF

西安咸陽国際空港 ( ZLXY / XIY ) - 中国 陝西省西安市
飛行場実況気象(Metar)
観測時間04/21 22:00 CST (04/21 14:00 UTC)
風向・風速北北東 3m/s
視程4000m
天気現象もや
なし
気温16℃
湿度94%
気圧1012hPa
METARZLXY 211400Z 03003MPS 4000 BR NSC 16/15 Q1012 NOSIG
過去の天気等 Google飛行場航空写真 Wunderground天気予報

過去48時間のMETAR

飛行場予報(TAF)
発表時間: 4/21 17:05 CST (4/21 09:05 UTC)
予報対象時間: 21日20時 CST ~ 22日20時 CST
風向・風速東北東 3m/s
視程3000m
天気現象もや
全天の8割程度の雲 雲底高度 2130m
22日6時 CST ~ 22日7時 CST に徐々に
視程2000m
天気現象もや
22日9時 CST ~ 22日10時 CST に徐々に
視程3000m
TAF ZLXY 210905Z 2112/2212 06003MPS 3000 BR BKN070 TX27/2207Z TN14/2122Z
BECMG 2122/2123 2000 BR
BECMG 2201/2202 3000